Hauptseite
METAR-TAF:

METAR-TAF

Flughäfen :

London Oxford Airport

Oxford, England

Breite: 51-50-13N, Länge: 1-19-12W, Höhe: 82 m

Beobachtung

Neuester Wetterbericht von vor 4 Stunden und 41 Minuten, um 21:20 UTC
Wind 7 kt aus Nord/Nordost, variierte zwischen Nord und Ost/Nordost
Temperatur 17°C
Luftfeuchtigkeit 88%
Luftdruck 1008 hPa
Sichtweite 10 km oder mehr
Geschlossene Wolkendecke in der Höhe von 2400 ft

METAR: EGTK 242120Z 03007KT 010V070 9999 OVC024 17/15 Q1008

Zeit: 03:01 (02:01 UTC)

Prognose

Neuester Wetterbericht von vor 9 Stunden und 6 Minuten, um 16:55 UTC
Gültige Prognose vom 24 um 18 UTC bis 24 um 21 UTC
Wind 8 kt aus Nordost
Sichtweite 10 km oder mehr
Aufgelockert bewölkt in der Höhe von 2500 ft
Wahrscheinlichkeit 30% :
Zeitweise
vom 24 um 18 UTC bis 24 um 21 UTC
Sichtweite: 3500 m
Regenschauer

TAF: EGTK 241655Z 2418/2421 04008KT 9999 SCT025 PROB30 TEMPO 2418/2421 3500 +SHRA

Wetterbeobachtungen und Prognosen von mehr als 4000 Flughäfen (METAR und TAF Bericht).

Die verfügbaren Stationen werden durch gelbe und rote Markierungen auf der Karte dargestellt.

Führen Sie die Maus auf sie, um den Namen der Station zu sehen.

Darauf klicken, um die Beobachtung von Wetterbeobachtungen und Prognosen zu sehen.

Um die Karte zu ändern : klicken Sie auf den grünen Tasten mit einem schwarzen Kreuz Zum Vergrößern, auf den grünen Button mit einem Gedankenstrich zu verkleinern, oder auf die grünen Pfeile für benachbarte Karten.


METAR-TAF: